createdAt,value
2019-05-23T00:01:13.694Z,7.53
2019-05-23T00:04:02.965Z,7.60
2019-05-23T00:06:35.912Z,7.13
2019-05-23T00:09:06.566Z,7.80
2019-05-23T00:11:40.585Z,7.20
2019-05-23T00:14:25.413Z,7.93
2019-05-23T00:16:56.253Z,8.03
2019-05-23T00:19:26.708Z,7.87
2019-05-23T00:21:56.019Z,8.07
2019-05-23T00:24:25.187Z,8.30
2019-05-23T00:26:54.561Z,8.33
2019-05-23T00:29:25.258Z,8.17
2019-05-23T00:31:56.221Z,8.27
2019-05-23T00:34:26.567Z,7.87
2019-05-23T00:36:55.247Z,7.67
2019-05-23T00:39:24.201Z,7.70
2019-05-23T00:41:53.772Z,8.37
2019-05-23T00:44:22.484Z,7.97
2019-05-23T00:46:52.640Z,8.40
2019-05-23T00:49:22.113Z,7.87
2019-05-23T00:51:50.699Z,8.33
2019-05-23T00:54:20.042Z,7.83
2019-05-23T00:56:50.216Z,8.20
2019-05-23T00:59:27.144Z,8.03
2019-05-23T01:01:50.109Z,8.40
2019-05-23T01:04:19.118Z,8.77
2019-05-23T01:06:49.365Z,9.43
2019-05-23T01:09:17.932Z,8.63
2019-05-23T01:11:47.643Z,8.87
2019-05-23T01:14:16.946Z,8.10
2019-05-23T01:16:45.847Z,7.67
2019-05-23T01:19:15.355Z,8.30
2019-05-23T01:21:54.614Z,9.20
2019-05-23T01:24:25.459Z,9.20
2019-05-23T01:26:54.783Z,8.90
2019-05-23T01:29:24.556Z,8.57
2019-05-23T01:31:57.798Z,9.80
2019-05-23T01:34:27.287Z,9.07
2019-05-23T01:36:56.969Z,10.57
2019-05-23T01:39:25.784Z,10.00
2019-05-23T01:41:54.625Z,9.70
2019-05-23T01:44:23.808Z,9.13
2019-05-23T01:46:53.278Z,9.87
2019-05-23T01:49:22.632Z,10.03
2019-05-23T01:51:51.196Z,10.40
2019-05-23T01:54:20.423Z,9.37
2019-05-23T01:56:50.408Z,9.63
2019-05-23T01:59:20.024Z,9.20
2019-05-23T02:01:49.257Z,10.10
2019-05-23T02:04:18.442Z,9.77
2019-05-23T02:06:47.858Z,8.90
2019-05-23T02:09:17.525Z,9.60
2019-05-23T02:11:46.586Z,9.27
2019-05-23T02:14:15.226Z,8.80
2019-05-23T02:16:44.534Z,9.57
2019-05-23T02:19:13.994Z,9.80
2019-05-23T02:21:43.141Z,9.73
2019-05-23T02:24:12.431Z,9.17
2019-05-23T02:26:41.090Z,9.30
2019-05-23T02:29:10.170Z,9.87
2019-05-23T02:31:39.081Z,9.50
2019-05-23T02:34:08.490Z,9.60
2019-05-23T02:36:37.634Z,9.70
2019-05-23T02:39:09.380Z,9.90
2019-05-23T02:41:39.695Z,10.53
2019-05-23T02:44:09.907Z,9.43
2019-05-23T02:46:42.687Z,9.67
2019-05-23T02:49:13.392Z,10.43
2019-05-23T02:51:43.474Z,10.13
2019-05-23T02:54:12.599Z,9.53
2019-05-23T02:56:42.251Z,9.30
2019-05-23T02:59:21.190Z,10.17
2019-05-23T03:02:22.767Z,9.40
2019-05-23T03:04:51.528Z,9.40
2019-05-23T03:07:23.063Z,10.23
2019-05-23T03:09:51.873Z,9.20
2019-05-23T03:12:25.108Z,9.30
2019-05-23T03:14:53.331Z,9.27
2019-05-23T03:17:25.182Z,8.90
2019-05-23T03:20:01.442Z,9.00
2019-05-23T03:22:46.302Z,9.63
2019-05-23T03:25:30.413Z,9.50
2019-05-23T03:28:00.984Z,9.10
2019-05-23T03:30:31.367Z,8.30
2019-05-23T03:33:01.583Z,8.93
2019-05-23T03:35:32.127Z,10.13
2019-05-23T03:38:01.534Z,9.90
2019-05-23T03:40:30.990Z,9.17
2019-05-23T03:42:59.698Z,8.30
2019-05-23T03:45:32.619Z,9.20
2019-05-23T03:48:02.050Z,8.80
2019-05-23T03:50:32.529Z,8.90
2019-05-23T03:53:01.750Z,8.80
2019-05-23T03:55:30.726Z,8.30
2019-05-23T03:58:00.876Z,9.00
2019-05-23T04:00:37.845Z,8.97
2019-05-23T04:03:07.690Z,9.27
2019-05-23T04:05:37.479Z,9.47
2019-05-23T04:08:07.465Z,8.80
2019-05-23T04:10:36.601Z,8.67
2019-05-23T04:13:06.209Z,9.17
2019-05-23T04:15:35.333Z,9.00
2019-05-23T04:18:04.036Z,9.97
2019-05-23T04:20:32.778Z,8.87
2019-05-23T04:23:01.874Z,9.43
2019-05-23T04:25:30.445Z,9.53
2019-05-23T04:27:59.641Z,11.60
2019-05-23T04:30:28.376Z,10.83
2019-05-23T04:32:57.107Z,10.93
2019-05-23T04:35:26.018Z,10.00
2019-05-23T04:37:54.791Z,10.43
2019-05-23T04:40:23.727Z,11.57
2019-05-23T04:42:52.296Z,10.80
2019-05-23T04:45:21.498Z,10.60
2019-05-23T04:47:50.071Z,10.50
2019-05-23T04:50:18.824Z,10.70
2019-05-23T04:52:48.580Z,10.93
2019-05-23T04:55:19.088Z,10.37
2019-05-23T04:57:47.913Z,9.70
2019-05-23T05:00:19.120Z,9.43
2019-05-23T05:02:48.122Z,9.40
2019-05-23T05:05:18.027Z,8.93
2019-05-23T05:07:46.846Z,8.87
2019-05-23T05:10:18.566Z,8.70
2019-05-23T05:12:47.789Z,8.43
2019-05-23T05:15:17.457Z,8.90
2019-05-23T05:17:46.143Z,8.87
2019-05-23T05:20:15.141Z,8.20
2019-05-23T05:22:44.252Z,8.13
2019-05-23T05:25:14.105Z,7.93
2019-05-23T05:27:43.461Z,7.03
2019-05-23T05:30:12.571Z,7.83
2019-05-23T05:32:45.267Z,7.43
2019-05-23T05:35:11.951Z,7.87
2019-05-23T05:37:40.594Z,7.53
2019-05-23T05:40:09.799Z,7.17
2019-05-23T05:42:41.232Z,8.07
2019-05-23T05:45:10.383Z,6.90
2019-05-23T05:47:39.378Z,6.63
2019-05-23T05:50:09.174Z,7.03
2019-05-23T05:52:39.011Z,6.40
2019-05-23T05:55:08.273Z,6.57
2019-05-23T05:57:37.114Z,6.17
2019-05-23T06:00:15.469Z,6.10
2019-05-23T06:03:00.826Z,5.67
2019-05-23T06:05:25.695Z,5.70
2019-05-23T06:07:54.855Z,6.17
2019-05-23T06:10:23.795Z,6.40
2019-05-23T06:12:52.491Z,6.10
2019-05-23T06:15:22.689Z,5.80
2019-05-23T06:17:51.327Z,5.97
2019-05-23T06:20:20.043Z,5.23
2019-05-23T06:22:48.761Z,6.00
2019-05-23T06:25:17.464Z,5.77
2019-05-23T06:27:46.584Z,6.33
2019-05-23T06:30:18.421Z,5.50
2019-05-23T06:32:47.046Z,6.50
2019-05-23T06:35:16.093Z,5.57
2019-05-23T06:37:45.411Z,5.50
2019-05-23T06:40:14.967Z,5.97
2019-05-23T06:42:43.702Z,5.90
2019-05-23T06:45:13.473Z,5.23
2019-05-23T06:47:42.243Z,5.30
2019-05-23T06:50:19.332Z,4.73
2019-05-23T06:52:47.877Z,5.10
2019-05-23T06:55:16.585Z,5.70
2019-05-23T06:57:45.179Z,5.37
2019-05-23T07:00:15.810Z,6.27
2019-05-23T07:02:45.005Z,6.20
2019-05-23T07:05:15.269Z,5.87
2019-05-23T07:07:44.084Z,6.23
2019-05-23T07:10:13.264Z,6.77
2019-05-23T07:12:42.139Z,5.70
2019-05-23T07:15:11.200Z,6.23
2019-05-23T07:17:39.783Z,6.00
2019-05-23T07:20:09.290Z,5.97
2019-05-23T07:22:37.916Z,5.80
2019-05-23T07:25:07.472Z,5.93
2019-05-23T07:27:36.682Z,6.00
2019-05-23T07:30:19.998Z,5.77
2019-05-23T07:32:48.586Z,5.87
2019-05-23T07:35:17.348Z,4.90
2019-05-23T07:37:46.082Z,5.90
2019-05-23T07:40:15.061Z,5.90
2019-05-23T07:42:43.762Z,5.40
2019-05-23T07:45:17.479Z,5.23
2019-05-23T07:47:46.094Z,6.40
2019-05-23T07:50:15.310Z,5.63
2019-05-23T07:52:44.277Z,6.10
2019-05-23T07:55:17.340Z,5.30
2019-05-23T07:57:45.968Z,5.60
2019-05-23T08:00:16.436Z,5.80
2019-05-23T08:02:48.478Z,5.23
2019-05-23T08:05:17.413Z,5.93
2019-05-23T08:07:47.404Z,6.20
2019-05-23T08:10:32.588Z,5.17
2019-05-23T08:12:46.675Z,5.27
2019-05-23T08:15:17.675Z,5.63
2019-05-23T08:17:46.460Z,4.87
2019-05-23T08:20:16.153Z,5.93
2019-05-23T08:22:45.629Z,6.30
2019-05-23T08:25:14.343Z,5.60
2019-05-23T08:27:43.087Z,5.70
2019-05-23T08:30:11.951Z,5.70
2019-05-23T08:32:40.813Z,5.67
2019-05-23T08:35:09.948Z,5.80
2019-05-23T08:37:39.820Z,5.17
2019-05-23T08:40:09.808Z,6.10
2019-05-23T08:42:38.707Z,6.13
2019-05-23T08:45:09.255Z,5.97
2019-05-23T08:47:37.894Z,6.23
2019-05-23T08:50:09.350Z,5.23
2019-05-23T08:52:38.057Z,5.80
2019-05-23T08:55:21.458Z,4.67
2019-05-23T08:57:50.835Z,5.10
2019-05-23T09:00:20.657Z,5.50
2019-05-23T09:02:49.369Z,5.03
2019-05-23T09:05:19.164Z,5.00
2019-05-23T09:07:48.155Z,5.00
2019-05-23T09:10:17.883Z,4.70
2019-05-23T09:12:46.727Z,4.58
2019-05-23T09:15:15.432Z,5.60
2019-05-23T09:17:52.995Z,5.72
2019-05-23T09:20:16.325Z,5.35
2019-05-23T09:22:44.881Z,4.97
2019-05-23T09:25:14.311Z,4.53
2019-05-23T09:27:42.941Z,5.00
2019-05-23T09:30:12.143Z,5.90
2019-05-23T09:32:41.703Z,5.13
2019-05-23T09:35:21.033Z,4.47
2019-05-23T09:37:42.393Z,4.50
2019-05-23T09:40:11.356Z,4.90
2019-05-23T09:42:40.064Z,4.40
2019-05-23T09:45:08.761Z,4.07
2019-05-23T09:47:37.457Z,3.90
2019-05-23T09:50:08.721Z,3.40
2019-05-23T09:52:37.368Z,4.33
2019-05-23T09:55:07.011Z,4.10
2019-05-23T09:57:35.629Z,4.50
2019-05-23T10:00:10.983Z,4.08
2019-05-23T10:02:39.529Z,4.92
2019-05-23T10:05:10.772Z,4.25
2019-05-23T10:07:39.569Z,4.08
2019-05-23T10:10:09.356Z,3.80
2019-05-23T10:12:38.169Z,4.40
2019-05-23T10:15:10.471Z,5.00
2019-05-23T10:17:39.120Z,4.37
2019-05-23T10:20:08.215Z,4.35
2019-05-23T10:22:36.786Z,4.28
2019-05-23T10:25:08.676Z,4.67
2019-05-23T10:27:37.322Z,4.28
2019-05-23T10:30:09.762Z,5.20
2019-05-23T10:32:38.495Z,4.20
2019-05-23T10:35:08.012Z,4.00
2019-05-23T10:37:36.580Z,3.80
2019-05-23T10:40:05.992Z,4.53
2019-05-23T10:42:34.720Z,4.62
2019-05-23T10:45:04.310Z,4.55
2019-05-23T10:47:32.925Z,5.17
2019-05-23T10:50:07.680Z,4.10
2019-05-23T10:52:33.473Z,4.75
2019-05-23T10:55:02.224Z,3.50
2019-05-23T10:57:31.266Z,4.27
2019-05-23T10:59:59.834Z,3.63
2019-05-23T11:02:28.726Z,3.73
2019-05-23T11:04:57.614Z,4.27
2019-05-23T11:07:26.726Z,3.90
2019-05-23T11:09:55.350Z,3.67
2019-05-23T11:12:24.398Z,4.10
2019-05-23T11:14:53.495Z,3.27
2019-05-23T11:17:22.208Z,3.60
2019-05-23T11:19:51.050Z,3.33
2019-05-23T11:22:20.412Z,2.80
2019-05-23T11:24:49.052Z,3.20
2019-05-23T11:27:18.592Z,3.17
2019-05-23T11:29:47.332Z,3.43
2019-05-23T11:32:20.105Z,3.27
2019-05-23T11:34:46.909Z,3.00
2019-05-23T11:37:15.622Z,3.53
2019-05-23T11:39:49.443Z,3.13
2019-05-23T11:42:14.473Z,3.13
2019-05-23T11:44:43.081Z,3.67
2019-05-23T11:47:12.352Z,3.90
2019-05-23T11:49:41.527Z,3.20
2019-05-23T11:52:10.848Z,3.63
2019-05-23T11:54:40.029Z,2.87
2019-05-23T11:57:09.107Z,2.97
2019-05-23T11:59:38.130Z,2.57
2019-05-23T12:02:14.052Z,3.40
2019-05-23T12:04:42.641Z,2.58
2019-05-23T12:07:12.902Z,2.98
2019-05-23T12:09:41.622Z,3.33
2019-05-23T12:12:10.364Z,2.40
2019-05-23T12:14:40.150Z,2.50
2019-05-23T12:17:08.990Z,2.72
2019-05-23T12:19:37.646Z,2.70
2019-05-23T12:22:06.348Z,3.43
2019-05-23T12:24:35.821Z,2.53
2019-05-23T12:27:05.082Z,2.75
2019-05-23T12:29:34.331Z,3.25
2019-05-23T12:32:04.290Z,2.25
2019-05-23T12:34:32.863Z,3.00
2019-05-23T12:37:18.089Z,2.85
2019-05-23T12:39:31.959Z,2.55
2019-05-23T12:42:00.541Z,3.75
2019-05-23T12:44:29.186Z,2.92
2019-05-23T12:46:59.384Z,3.10
2019-05-23T12:49:35.516Z,2.90
2019-05-23T12:52:05.879Z,2.60
2019-05-23T12:54:34.537Z,2.05
2019-05-23T12:57:03.170Z,2.20
2019-05-23T12:59:32.016Z,2.22
2019-05-23T13:02:01.794Z,2.50
2019-05-23T13:04:30.689Z,2.83
2019-05-23T13:06:59.494Z,3.30
2019-05-23T13:09:28.193Z,3.10
2019-05-23T13:11:56.777Z,3.15
2019-05-23T13:14:25.621Z,3.23
2019-05-23T13:16:54.958Z,3.40
2019-05-23T13:19:23.977Z,3.43
2019-05-23T13:21:52.610Z,4.43
2019-05-23T13:24:21.495Z,3.70
2019-05-23T13:26:50.294Z,4.60
2019-05-23T13:29:18.916Z,3.17
2019-05-23T13:31:47.625Z,3.67
2019-05-23T13:34:16.149Z,4.10
2019-05-23T13:36:44.827Z,3.73
2019-05-23T13:39:13.451Z,4.03
2019-05-23T13:41:42.132Z,3.80
2019-05-23T13:44:29.695Z,3.83
2019-05-23T13:46:40.944Z,4.13
2019-05-23T13:49:09.577Z,4.10
2019-05-23T13:51:38.384Z,4.20
2019-05-23T13:54:07.014Z,3.30
2019-05-23T13:56:35.701Z,3.63
2019-05-23T13:59:04.456Z,3.53
2019-05-23T14:01:33.465Z,2.80
2019-05-23T14:04:01.986Z,2.50
2019-05-23T14:06:30.643Z,2.83
2019-05-23T14:08:59.179Z,3.43
2019-05-23T14:11:27.899Z,3.23
2019-05-23T14:14:00.237Z,2.80
2019-05-23T14:16:28.433Z,2.80
2019-05-23T14:18:56.988Z,2.60
2019-05-23T14:21:26.045Z,2.50
2019-05-23T14:23:54.669Z,3.10
2019-05-23T14:26:23.682Z,3.23
2019-05-23T14:28:52.331Z,3.60
2019-05-23T14:31:20.926Z,4.23
2019-05-23T14:33:57.000Z,3.50
2019-05-23T14:36:45.166Z,3.90
2019-05-23T14:39:15.423Z,3.63
2019-05-23T14:41:45.900Z,3.27
2019-05-23T14:44:14.488Z,3.20
2019-05-23T14:46:53.443Z,3.50
2019-05-23T14:49:38.644Z,2.60
2019-05-23T14:52:09.168Z,2.53
2019-05-23T14:54:39.402Z,2.50
2019-05-23T14:57:08.520Z,1.93
2019-05-23T14:59:37.171Z,2.60
2019-05-23T15:02:07.539Z,2.70
2019-05-23T15:04:36.134Z,2.17
2019-05-23T15:07:05.232Z,1.80
2019-05-23T15:09:34.047Z,2.17
2019-05-23T15:12:02.671Z,2.30
2019-05-23T15:14:31.254Z,2.00
2019-05-23T15:16:59.873Z,1.83
2019-05-23T15:19:41.882Z,1.87
2019-05-23T15:21:58.796Z,1.73
2019-05-23T15:24:27.920Z,1.70
2019-05-23T15:26:56.484Z,2.03
2019-05-23T15:29:29.021Z,2.27
2019-05-23T15:32:02.467Z,2.10
2019-05-23T15:34:25.675Z,1.80
2019-05-23T15:36:54.306Z,1.87
2019-05-23T15:39:23.542Z,2.03
2019-05-23T15:41:52.194Z,2.00
2019-05-23T15:44:27.062Z,1.93
2019-05-23T15:46:51.046Z,1.90
2019-05-23T15:49:19.766Z,1.87
2019-05-23T15:51:53.783Z,2.10
2019-05-23T15:54:24.845Z,2.03
2019-05-23T15:56:55.018Z,1.60
2019-05-23T15:59:37.183Z,2.10
2019-05-23T16:02:16.049Z,2.13
2019-05-23T16:04:44.966Z,2.23
2019-05-23T16:07:13.934Z,2.30
2019-05-23T16:09:42.483Z,2.17
2019-05-23T16:12:11.959Z,1.67
2019-05-23T16:14:40.694Z,2.00
2019-05-23T16:17:09.392Z,1.90
2019-05-23T16:19:37.952Z,2.33
2019-05-23T16:22:06.693Z,2.23
2019-05-23T16:24:35.582Z,2.03
2019-05-23T16:27:05.761Z,2.00
2019-05-23T16:29:34.470Z,2.17
2019-05-23T16:32:03.148Z,2.00
2019-05-23T16:34:31.773Z,2.17
2019-05-23T16:37:00.412Z,2.00
2019-05-23T16:39:45.952Z,2.17
2019-05-23T16:41:59.629Z,1.87
2019-05-23T16:44:28.242Z,2.13
2019-05-23T16:46:56.941Z,2.47
2019-05-23T16:49:25.500Z,2.20
2019-05-23T16:51:54.152Z,1.70
2019-05-23T16:54:24.346Z,1.43
2019-05-23T16:56:54.635Z,2.40
2019-05-23T16:59:25.000Z,1.90
2019-05-23T17:02:13.159Z,1.93
2019-05-23T17:05:09.402Z,1.43
2019-05-23T17:07:35.562Z,1.30
2019-05-23T17:10:09.536Z,1.80
2019-05-23T17:12:45.751Z,1.53
2019-05-23T17:15:19.001Z,1.53
2019-05-23T17:18:04.303Z,1.40
2019-05-23T17:20:50.671Z,1.70
2019-05-23T17:23:33.364Z,1.37
2019-05-23T17:26:03.797Z,1.63
2019-05-23T17:28:37.185Z,1.50
2019-05-23T17:31:07.628Z,1.30
2019-05-23T17:33:37.232Z,1.40
2019-05-23T17:36:06.087Z,1.60
2019-05-23T17:38:34.747Z,1.43
2019-05-23T17:41:03.530Z,1.20
2019-05-23T17:43:32.181Z,1.40
2019-05-23T17:46:00.824Z,1.97
2019-05-23T17:48:29.369Z,1.50
2019-05-23T17:50:58.110Z,1.40
2019-05-23T17:53:27.201Z,1.40
2019-05-23T17:55:56.549Z,2.07
2019-05-23T17:58:25.314Z,1.30
2019-05-23T18:00:54.642Z,1.70
2019-05-23T18:03:23.593Z,1.30
2019-05-23T18:05:52.247Z,1.20
2019-05-23T18:08:21.135Z,1.23
2019-05-23T18:10:50.138Z,1.00
2019-05-23T18:13:19.642Z,1.50
2019-05-23T18:15:48.525Z,4.20
2019-05-23T18:18:17.755Z,1.20
2019-05-23T18:20:46.354Z,1.40
2019-05-23T18:23:15.810Z,1.23
2019-05-23T18:25:44.484Z,1.00
2019-05-23T18:28:14.949Z,1.20
2019-05-23T18:30:45.439Z,1.33
2019-05-23T18:33:15.926Z,1.60
2019-05-23T18:35:44.749Z,1.40
2019-05-23T18:38:13.393Z,1.10
2019-05-23T18:40:42.161Z,1.27
2019-05-23T18:43:11.054Z,1.30
2019-05-23T18:45:40.867Z,1.13
2019-05-23T18:48:09.501Z,1.07
2019-05-23T18:50:38.639Z,1.50
2019-05-23T18:53:08.554Z,1.37
2019-05-23T18:55:37.423Z,1.53
2019-05-23T18:58:06.325Z,1.40
2019-05-23T19:00:55.230Z,1.43
2019-05-23T19:06:23.882Z,3.57
2019-05-23T19:08:52.879Z,3.10
2019-05-23T19:14:11.785Z,5.13
2019-05-23T19:16:40.640Z,4.17
2019-05-23T19:19:09.485Z,4.93
2019-05-23T19:21:38.817Z,3.30
2019-05-23T19:24:08.275Z,2.30
2019-05-23T19:26:37.009Z,2.03
2019-05-23T19:29:06.627Z,2.40
2019-05-23T19:31:36.637Z,2.57
2019-05-23T19:34:05.986Z,2.50
2019-05-23T19:36:35.875Z,2.80
2019-05-23T19:39:06.186Z,2.67
2019-05-23T19:41:37.861Z,3.90
2019-05-23T19:44:05.843Z,2.30
2019-05-23T19:46:34.913Z,2.70
2019-05-23T19:49:03.964Z,2.37
2019-05-23T19:51:32.972Z,2.03
2019-05-23T19:54:01.937Z,1.83
2019-05-23T19:56:30.768Z,1.87
2019-05-23T19:59:01.170Z,1.93
2019-05-23T20:01:32.376Z,1.73
2019-05-23T20:04:08.734Z,2.30
2019-05-23T20:06:37.419Z,1.93
2019-05-23T20:09:10.366Z,2.00
2019-05-23T20:11:53.298Z,2.00
2019-05-23T20:14:09.592Z,2.20
2019-05-23T20:16:38.296Z,2.40
2019-05-23T20:19:07.012Z,2.60
2019-05-23T20:21:35.636Z,2.23
2019-05-23T20:24:04.524Z,2.60
2019-05-23T20:26:33.145Z,2.17
2019-05-23T20:29:03.410Z,2.57
2019-05-23T20:31:32.311Z,2.70
2019-05-23T20:34:00.946Z,2.77
2019-05-23T20:36:29.663Z,2.80
2019-05-23T20:38:58.246Z,2.77
2019-05-23T20:41:27.395Z,2.67
2019-05-23T20:43:55.950Z,2.37
2019-05-23T20:46:24.844Z,2.37
2019-05-23T20:48:53.494Z,2.63
2019-05-23T20:51:22.335Z,2.50
2019-05-23T20:53:51.185Z,3.77
2019-05-23T20:56:19.824Z,6.90
2019-05-23T20:58:48.573Z,5.90
2019-05-23T21:01:18.759Z,4.73
2019-05-23T21:03:47.995Z,2.80
2019-05-23T21:06:16.703Z,2.80
2019-05-23T21:08:45.447Z,3.07
2019-05-23T21:11:13.992Z,3.00
2019-05-23T21:13:42.625Z,3.63
2019-05-23T21:16:11.191Z,4.97
2019-05-23T21:18:39.766Z,3.33
2019-05-23T21:21:08.415Z,2.93
2019-05-23T21:23:36.994Z,9.57
2019-05-23T21:26:06.435Z,8.73
2019-05-23T21:28:35.138Z,6.87
2019-05-23T21:31:05.658Z,3.77
2019-05-23T21:33:34.210Z,3.30
2019-05-23T21:36:02.992Z,2.90
2019-05-23T21:38:31.708Z,2.97
2019-05-23T21:41:03.161Z,3.43
2019-05-23T21:43:30.567Z,3.97
2019-05-23T21:45:59.119Z,3.73
2019-05-23T21:48:27.703Z,3.67
2019-05-23T21:50:56.264Z,3.50
2019-05-23T21:53:24.834Z,3.80
2019-05-23T21:55:53.437Z,3.53
2019-05-23T21:58:22.011Z,3.80
2019-05-23T22:01:07.209Z,3.80
2019-05-23T22:03:44.546Z,3.83
2019-05-23T22:06:14.932Z,4.00
2019-05-23T22:08:44.150Z,3.40
2019-05-23T22:11:13.829Z,3.77
2019-05-23T22:13:42.941Z,3.40
2019-05-23T22:16:11.440Z,3.57
2019-05-23T22:18:40.155Z,3.90
2019-05-23T22:21:08.957Z,3.57
2019-05-23T22:23:38.185Z,3.97
2019-05-23T22:26:07.405Z,3.57
2019-05-23T22:28:36.203Z,4.33
2019-05-23T22:31:04.911Z,3.47
2019-05-23T22:33:41.258Z,3.57
2019-05-23T22:36:09.955Z,3.67
2019-05-23T22:38:38.505Z,3.93
2019-05-23T22:41:07.223Z,4.87
2019-05-23T22:43:35.775Z,4.43
2019-05-23T22:46:04.667Z,4.93
2019-05-23T22:48:34.143Z,4.83
2019-05-23T22:51:02.704Z,4.70
2019-05-23T22:53:31.332Z,4.40
2019-05-23T22:55:59.920Z,4.00
2019-05-23T22:58:28.480Z,4.33
2019-05-23T23:00:57.037Z,4.77
2019-05-23T23:03:25.510Z,4.10
2019-05-23T23:05:54.177Z,4.80
2019-05-23T23:08:23.821Z,4.90
2019-05-23T23:10:52.338Z,4.50
2019-05-23T23:13:36.092Z,4.80
2019-05-23T23:15:51.423Z,4.80
2019-05-23T23:18:20.049Z,4.60
2019-05-23T23:20:48.557Z,4.60
2019-05-23T23:23:17.116Z,4.67
2019-05-23T23:25:45.749Z,4.37
2019-05-23T23:28:14.255Z,4.00
2019-05-23T23:30:44.750Z,4.73
2019-05-23T23:33:13.487Z,4.23
2019-05-23T23:35:42.144Z,4.77
2019-05-23T23:38:10.840Z,4.30
2019-05-23T23:40:39.482Z,4.07
2019-05-23T23:43:08.116Z,4.63
2019-05-23T23:45:54.983Z,4.80
2019-05-23T23:48:40.881Z,4.80
2019-05-23T23:51:27.366Z,3.90
2019-05-23T23:54:13.877Z,4.10
2019-05-23T23:57:00.552Z,4.07
2019-05-23T23:59:28.708Z,5.90
